sensor_id;sensor_type;location;lat;lon;timestamp;P1;durP1;ratioP1;P2;durP2;ratioP2
62362;SDS011;48396;48.426;1.500;2023-03-11T00:01:05;5.70;;;3.05;;
62362;SDS011;48396;48.426;1.500;2023-03-11T00:03:31;5.72;;;3.13;;
62362;SDS011;48396;48.426;1.500;2023-03-11T00:05:59;7.45;;;3.50;;
62362;SDS011;48396;48.426;1.500;2023-03-11T00:08:26;9.73;;;3.38;;
62362;SDS011;48396;48.426;1.500;2023-03-11T00:10:53;8.63;;;3.60;;
62362;SDS011;48396;48.426;1.500;2023-03-11T00:13:20;5.30;;;3.28;;
62362;SDS011;48396;48.426;1.500;2023-03-11T00:15:48;7.10;;;3.50;;
62362;SDS011;48396;48.426;1.500;2023-03-11T00:18:15;3.58;;;2.90;;
62362;SDS011;48396;48.426;1.500;2023-03-11T00:20:42;6.45;;;3.40;;
62362;SDS011;48396;48.426;1.500;2023-03-11T00:23:10;9.38;;;3.75;;
62362;SDS011;48396;48.426;1.500;2023-03-11T00:25:38;7.35;;;3.30;;
62362;SDS011;48396;48.426;1.500;2023-03-11T00:28:05;7.18;;;3.80;;
62362;SDS011;48396;48.426;1.500;2023-03-11T00:30:35;9.98;;;4.22;;
62362;SDS011;48396;48.426;1.500;2023-03-11T00:33:02;10.43;;;4.40;;
62362;SDS011;48396;48.426;1.500;2023-03-11T00:35:29;6.97;;;3.80;;
62362;SDS011;48396;48.426;1.500;2023-03-11T00:37:58;7.18;;;3.65;;
62362;SDS011;48396;48.426;1.500;2023-03-11T00:40:26;8.65;;;3.80;;
62362;SDS011;48396;48.426;1.500;2023-03-11T00:42:54;9.65;;;4.25;;
62362;SDS011;48396;48.426;1.500;2023-03-11T00:45:20;6.72;;;3.67;;
62362;SDS011;48396;48.426;1.500;2023-03-11T00:47:46;7.82;;;3.80;;
62362;SDS011;48396;48.426;1.500;2023-03-11T00:50:16;8.27;;;4.07;;
62362;SDS011;48396;48.426;1.500;2023-03-11T00:52:46;6.55;;;3.60;;
62362;SDS011;48396;48.426;1.500;2023-03-11T00:55:13;8.40;;;4.30;;
62362;SDS011;48396;48.426;1.500;2023-03-11T00:57:41;8.98;;;4.45;;
62362;SDS011;48396;48.426;1.500;2023-03-11T01:00:07;8.48;;;4.22;;
62362;SDS011;48396;48.426;1.500;2023-03-11T01:02:37;9.45;;;4.60;;
62362;SDS011;48396;48.426;1.500;2023-03-11T01:05:04;9.90;;;4.70;;
62362;SDS011;48396;48.426;1.500;2023-03-11T01:07:31;9.32;;;4.43;;
62362;SDS011;48396;48.426;1.500;2023-03-11T01:09:59;9.60;;;4.47;;
62362;SDS011;48396;48.426;1.500;2023-03-11T01:12:24;10.43;;;4.60;;
62362;SDS011;48396;48.426;1.500;2023-03-11T01:14:51;8.55;;;4.10;;
62362;SDS011;48396;48.426;1.500;2023-03-11T01:17:16;10.55;;;5.20;;
62362;SDS011;48396;48.426;1.500;2023-03-11T01:19:42;10.40;;;5.10;;
62362;SDS011;48396;48.426;1.500;2023-03-11T01:22:09;11.15;;;5.45;;
62362;SDS011;48396;48.426;1.500;2023-03-11T01:24:35;11.05;;;5.13;;
62362;SDS011;48396;48.426;1.500;2023-03-11T01:27:01;10.40;;;5.20;;
62362;SDS011;48396;48.426;1.500;2023-03-11T01:29:26;11.35;;;5.20;;
62362;SDS011;48396;48.426;1.500;2023-03-11T01:31:52;8.93;;;4.72;;
62362;SDS011;48396;48.426;1.500;2023-03-11T01:34:18;9.25;;;4.80;;
62362;SDS011;48396;48.426;1.500;2023-03-11T01:36:44;8.13;;;4.75;;
62362;SDS011;48396;48.426;1.500;2023-03-11T01:39:09;8.20;;;4.78;;
62362;SDS011;48396;48.426;1.500;2023-03-11T01:41:35;11.43;;;5.55;;
62362;SDS011;48396;48.426;1.500;2023-03-11T01:44:01;13.27;;;5.60;;
62362;SDS011;48396;48.426;1.500;2023-03-11T01:49:16;10.95;;;5.60;;
62362;SDS011;48396;48.426;1.500;2023-03-11T01:51:43;14.05;;;6.10;;
62362;SDS011;48396;48.426;1.500;2023-03-11T01:54:15;12.82;;;6.13;;
62362;SDS011;48396;48.426;1.500;2023-03-11T01:56:43;12.88;;;6.38;;
62362;SDS011;48396;48.426;1.500;2023-03-11T01:59:11;14.32;;;6.05;;
62362;SDS011;48396;48.426;1.500;2023-03-11T02:01:46;11.98;;;5.68;;
62362;SDS011;48396;48.426;1.500;2023-03-11T02:04:17;11.90;;;6.30;;
62362;SDS011;48396;48.426;1.500;2023-03-11T02:06:45;10.25;;;5.35;;
62362;SDS011;48396;48.426;1.500;2023-03-11T02:09:12;12.48;;;5.63;;
62362;SDS011;48396;48.426;1.500;2023-03-11T02:11:38;11.55;;;5.72;;
62362;SDS011;48396;48.426;1.500;2023-03-11T02:14:04;12.65;;;6.30;;
62362;SDS011;48396;48.426;1.500;2023-03-11T02:16:32;15.77;;;7.45;;
62362;SDS011;48396;48.426;1.500;2023-03-11T02:18:58;12.95;;;6.38;;
62362;SDS011;48396;48.426;1.500;2023-03-11T02:21:29;13.63;;;6.55;;
62362;SDS011;48396;48.426;1.500;2023-03-11T02:26:57;12.40;;;6.78;;
62362;SDS011;48396;48.426;1.500;2023-03-11T02:29:26;14.40;;;6.90;;
62362;SDS011;48396;48.426;1.500;2023-03-11T02:31:53;15.95;;;7.35;;
62362;SDS011;48396;48.426;1.500;2023-03-11T02:34:26;14.10;;;7.00;;
62362;SDS011;48396;48.426;1.500;2023-03-11T02:36:53;15.27;;;7.38;;
62362;SDS011;48396;48.426;1.500;2023-03-11T02:39:29;17.48;;;8.27;;
62362;SDS011;48396;48.426;1.500;2023-03-11T02:41:56;16.15;;;7.80;;
62362;SDS011;48396;48.426;1.500;2023-03-11T02:44:23;15.70;;;8.10;;
62362;SDS011;48396;48.426;1.500;2023-03-11T02:46:49;19.52;;;9.45;;
62362;SDS011;48396;48.426;1.500;2023-03-11T02:49:16;16.73;;;8.68;;
62362;SDS011;48396;48.426;1.500;2023-03-11T02:51:44;17.05;;;8.88;;
62362;SDS011;48396;48.426;1.500;2023-03-11T02:54:09;19.45;;;9.60;;
62362;SDS011;48396;48.426;1.500;2023-03-11T02:56:36;17.80;;;8.75;;
62362;SDS011;48396;48.426;1.500;2023-03-11T02:59:02;15.32;;;7.35;;
62362;SDS011;48396;48.426;1.500;2023-03-11T03:01:28;16.20;;;7.32;;
62362;SDS011;48396;48.426;1.500;2023-03-11T03:03:54;15.13;;;7.03;;
62362;SDS011;48396;48.426;1.500;2023-03-11T03:06:20;14.90;;;6.60;;
62362;SDS011;48396;48.426;1.500;2023-03-11T03:08:45;15.32;;;7.15;;
62362;SDS011;48396;48.426;1.500;2023-03-11T03:11:11;15.10;;;6.97;;
62362;SDS011;48396;48.426;1.500;2023-03-11T03:13:37;12.85;;;5.85;;
62362;SDS011;48396;48.426;1.500;2023-03-11T03:16:03;8.18;;;4.70;;
62362;SDS011;48396;48.426;1.500;2023-03-11T03:18:29;9.68;;;4.47;;
62362;SDS011;48396;48.426;1.500;2023-03-11T03:20:55;9.82;;;4.30;;
62362;SDS011;48396;48.426;1.500;2023-03-11T03:23:21;7.18;;;3.40;;
62362;SDS011;48396;48.426;1.500;2023-03-11T03:25:47;9.10;;;3.70;;
62362;SDS011;48396;48.426;1.500;2023-03-11T03:28:12;6.72;;;3.58;;
62362;SDS011;48396;48.426;1.500;2023-03-11T03:30:38;7.57;;;3.58;;
62362;SDS011;48396;48.426;1.500;2023-03-11T03:33:05;9.32;;;3.83;;
62362;SDS011;48396;48.426;1.500;2023-03-11T03:35:31;7.50;;;3.45;;
62362;SDS011;48396;48.426;1.500;2023-03-11T03:37:58;6.90;;;3.60;;
62362;SDS011;48396;48.426;1.500;2023-03-11T03:40:24;5.72;;;3.28;;
62362;SDS011;48396;48.426;1.500;2023-03-11T03:42:50;4.50;;;3.20;;
62362;SDS011;48396;48.426;1.500;2023-03-11T03:45:16;6.57;;;3.50;;
62362;SDS011;48396;48.426;1.500;2023-03-11T03:47:42;6.68;;;3.45;;
62362;SDS011;48396;48.426;1.500;2023-03-11T03:50:08;7.47;;;3.60;;
62362;SDS011;48396;48.426;1.500;2023-03-11T03:52:35;5.57;;;3.20;;
62362;SDS011;48396;48.426;1.500;2023-03-11T03:55:02;7.55;;;3.40;;
62362;SDS011;48396;48.426;1.500;2023-03-11T03:57:29;5.22;;;3.28;;
62362;SDS011;48396;48.426;1.500;2023-03-11T03:59:55;7.40;;;3.53;;
62362;SDS011;48396;48.426;1.500;2023-03-11T04:02:21;5.28;;;3.03;;
62362;SDS011;48396;48.426;1.500;2023-03-11T04:04:47;10.20;;;3.70;;
62362;SDS011;48396;48.426;1.500;2023-03-11T04:07:13;9.38;;;3.70;;
62362;SDS011;48396;48.426;1.500;2023-03-11T04:09:39;6.78;;;3.47;;
62362;SDS011;48396;48.426;1.500;2023-03-11T04:12:08;8.65;;;3.72;;
62362;SDS011;48396;48.426;1.500;2023-03-11T04:14:38;5.83;;;3.47;;
62362;SDS011;48396;48.426;1.500;2023-03-11T04:17:04;6.85;;;3.40;;
62362;SDS011;48396;48.426;1.500;2023-03-11T04:19:29;5.85;;;3.58;;
62362;SDS011;48396;48.426;1.500;2023-03-11T04:21:55;5.70;;;2.83;;
62362;SDS011;48396;48.426;1.500;2023-03-11T04:24:21;6.47;;;3.33;;
62362;SDS011;48396;48.426;1.500;2023-03-11T04:26:47;6.80;;;3.60;;
62362;SDS011;48396;48.426;1.500;2023-03-11T04:29:13;7.70;;;3.50;;
62362;SDS011;48396;48.426;1.500;2023-03-11T04:31:38;7.72;;;3.65;;
62362;SDS011;48396;48.426;1.500;2023-03-11T04:34:04;7.82;;;4.03;;
62362;SDS011;48396;48.426;1.500;2023-03-11T04:36:30;7.75;;;3.65;;
62362;SDS011;48396;48.426;1.500;2023-03-11T04:38:56;6.53;;;3.92;;
62362;SDS011;48396;48.426;1.500;2023-03-11T04:41:22;8.35;;;3.35;;
62362;SDS011;48396;48.426;1.500;2023-03-11T04:43:48;5.28;;;3.45;;
62362;SDS011;48396;48.426;1.500;2023-03-11T04:46:14;8.27;;;4.10;;
62362;SDS011;48396;48.426;1.500;2023-03-11T04:48:40;7.80;;;3.50;;
62362;SDS011;48396;48.426;1.500;2023-03-11T04:51:06;5.75;;;3.53;;
62362;SDS011;48396;48.426;1.500;2023-03-11T04:53:32;7.85;;;3.72;;
62362;SDS011;48396;48.426;1.500;2023-03-11T04:55:58;6.65;;;3.38;;
62362;SDS011;48396;48.426;1.500;2023-03-11T04:58:24;6.50;;;3.70;;
62362;SDS011;48396;48.426;1.500;2023-03-11T05:00:50;6.60;;;3.72;;
62362;SDS011;48396;48.426;1.500;2023-03-11T05:03:17;7.60;;;3.78;;
62362;SDS011;48396;48.426;1.500;2023-03-11T05:05:43;7.95;;;3.60;;
62362;SDS011;48396;48.426;1.500;2023-03-11T05:08:09;6.03;;;3.70;;
62362;SDS011;48396;48.426;1.500;2023-03-11T05:10:35;6.55;;;3.30;;
62362;SDS011;48396;48.426;1.500;2023-03-11T05:13:01;7.18;;;3.55;;
62362;SDS011;48396;48.426;1.500;2023-03-11T05:15:27;7.43;;;4.10;;
62362;SDS011;48396;48.426;1.500;2023-03-11T05:17:55;5.95;;;3.08;;
62362;SDS011;48396;48.426;1.500;2023-03-11T05:20:21;7.65;;;3.20;;
62362;SDS011;48396;48.426;1.500;2023-03-11T05:22:47;8.02;;;3.97;;
62362;SDS011;48396;48.426;1.500;2023-03-11T05:25:13;7.22;;;3.83;;
62362;SDS011;48396;48.426;1.500;2023-03-11T05:27:38;5.63;;;3.40;;
62362;SDS011;48396;48.426;1.500;2023-03-11T05:30:05;6.97;;;3.10;;
62362;SDS011;48396;48.426;1.500;2023-03-11T05:32:31;6.97;;;3.25;;
62362;SDS011;48396;48.426;1.500;2023-03-11T05:34:57;6.13;;;2.80;;
62362;SDS011;48396;48.426;1.500;2023-03-11T05:37:23;6.53;;;2.78;;
62362;SDS011;48396;48.426;1.500;2023-03-11T05:39:50;5.57;;;2.83;;
62362;SDS011;48396;48.426;1.500;2023-03-11T05:42:16;5.78;;;2.55;;
62362;SDS011;48396;48.426;1.500;2023-03-11T05:44:42;5.85;;;2.75;;
62362;SDS011;48396;48.426;1.500;2023-03-11T05:47:08;4.90;;;2.55;;
62362;SDS011;48396;48.426;1.500;2023-03-11T05:49:34;4.05;;;2.20;;
62362;SDS011;48396;48.426;1.500;2023-03-11T05:52:00;5.18;;;2.70;;
62362;SDS011;48396;48.426;1.500;2023-03-11T05:54:26;6.22;;;2.75;;
62362;SDS011;48396;48.426;1.500;2023-03-11T05:56:51;4.65;;;2.70;;
62362;SDS011;48396;48.426;1.500;2023-03-11T05:59:17;5.80;;;2.83;;
62362;SDS011;48396;48.426;1.500;2023-03-11T06:01:43;4.88;;;2.30;;
62362;SDS011;48396;48.426;1.500;2023-03-11T06:04:09;6.55;;;2.70;;
62362;SDS011;48396;48.426;1.500;2023-03-11T06:06:35;4.03;;;2.35;;
62362;SDS011;48396;48.426;1.500;2023-03-11T06:09:02;6.00;;;2.47;;
62362;SDS011;48396;48.426;1.500;2023-03-11T06:11:28;3.13;;;2.50;;
62362;SDS011;48396;48.426;1.500;2023-03-11T06:13:55;4.38;;;2.65;;
62362;SDS011;48396;48.426;1.500;2023-03-11T06:16:22;2.80;;;2.33;;
62362;SDS011;48396;48.426;1.500;2023-03-11T06:18:49;3.97;;;2.50;;
62362;SDS011;48396;48.426;1.500;2023-03-11T06:21:17;4.78;;;2.65;;
62362;SDS011;48396;48.426;1.500;2023-03-11T06:23:45;6.35;;;2.72;;
62362;SDS011;48396;48.426;1.500;2023-03-11T06:26:12;6.60;;;2.80;;
62362;SDS011;48396;48.426;1.500;2023-03-11T06:28:40;5.35;;;2.70;;
62362;SDS011;48396;48.426;1.500;2023-03-11T06:31:08;4.70;;;2.47;;
62362;SDS011;48396;48.426;1.500;2023-03-11T06:33:35;5.30;;;2.63;;
62362;SDS011;48396;48.426;1.500;2023-03-11T06:36:02;4.43;;;2.63;;
62362;SDS011;48396;48.426;1.500;2023-03-11T06:38:29;6.28;;;2.90;;
62362;SDS011;48396;48.426;1.500;2023-03-11T06:41:02;4.57;;;2.65;;
62362;SDS011;48396;48.426;1.500;2023-03-11T06:43:30;3.85;;;2.40;;
62362;SDS011;48396;48.426;1.500;2023-03-11T06:45:56;4.55;;;2.42;;
62362;SDS011;48396;48.426;1.500;2023-03-11T06:48:23;5.30;;;2.78;;
62362;SDS011;48396;48.426;1.500;2023-03-11T06:50:53;5.47;;;2.97;;
62362;SDS011;48396;48.426;1.500;2023-03-11T06:53:19;5.95;;;2.67;;
62362;SDS011;48396;48.426;1.500;2023-03-11T06:55:45;3.55;;;2.65;;
62362;SDS011;48396;48.426;1.500;2023-03-11T06:58:21;3.70;;;2.65;;
62362;SDS011;48396;48.426;1.500;2023-03-11T07:00:46;4.68;;;2.97;;
62362;SDS011;48396;48.426;1.500;2023-03-11T07:03:12;3.83;;;2.70;;
62362;SDS011;48396;48.426;1.500;2023-03-11T07:05:38;4.70;;;3.30;;
62362;SDS011;48396;48.426;1.500;2023-03-11T07:08:05;7.80;;;3.45;;
62362;SDS011;48396;48.426;1.500;2023-03-11T07:10:30;5.50;;;2.83;;
62362;SDS011;48396;48.426;1.500;2023-03-11T07:12:56;7.25;;;3.20;;
62362;SDS011;48396;48.426;1.500;2023-03-11T07:15:22;6.13;;;2.90;;
62362;SDS011;48396;48.426;1.500;2023-03-11T07:17:48;4.63;;;3.05;;
62362;SDS011;48396;48.426;1.500;2023-03-11T07:20:13;6.40;;;3.38;;
62362;SDS011;48396;48.426;1.500;2023-03-11T07:22:39;5.65;;;3.30;;
62362;SDS011;48396;48.426;1.500;2023-03-11T07:25:05;6.03;;;3.40;;
62362;SDS011;48396;48.426;1.500;2023-03-11T07:27:31;7.35;;;3.53;;
62362;SDS011;48396;48.426;1.500;2023-03-11T07:29:57;4.13;;;3.22;;
62362;SDS011;48396;48.426;1.500;2023-03-11T07:32:24;4.18;;;3.40;;
62362;SDS011;48396;48.426;1.500;2023-03-11T07:34:50;5.35;;;3.30;;
62362;SDS011;48396;48.426;1.500;2023-03-11T07:37:15;4.93;;;3.05;;
62362;SDS011;48396;48.426;1.500;2023-03-11T07:39:41;7.60;;;3.33;;
62362;SDS011;48396;48.426;1.500;2023-03-11T07:42:07;5.32;;;3.13;;
62362;SDS011;48396;48.426;1.500;2023-03-11T07:44:33;7.13;;;3.58;;
62362;SDS011;48396;48.426;1.500;2023-03-11T07:47:00;6.35;;;3.60;;
62362;SDS011;48396;48.426;1.500;2023-03-11T07:49:27;5.63;;;3.10;;
62362;SDS011;48396;48.426;1.500;2023-03-11T07:51:53;5.07;;;3.33;;
62362;SDS011;48396;48.426;1.500;2023-03-11T07:54:20;7.65;;;3.47;;
62362;SDS011;48396;48.426;1.500;2023-03-11T07:56:46;6.53;;;3.42;;
62362;SDS011;48396;48.426;1.500;2023-03-11T07:59:11;7.05;;;3.55;;
62362;SDS011;48396;48.426;1.500;2023-03-11T08:01:37;7.82;;;3.13;;
62362;SDS011;48396;48.426;1.500;2023-03-11T08:04:06;5.45;;;3.15;;
62362;SDS011;48396;48.426;1.500;2023-03-11T08:06:33;6.57;;;2.85;;
62362;SDS011;48396;48.426;1.500;2023-03-11T08:09:02;4.97;;;2.78;;
62362;SDS011;48396;48.426;1.500;2023-03-11T08:11:30;4.53;;;2.65;;
62362;SDS011;48396;48.426;1.500;2023-03-11T08:13:56;4.88;;;2.95;;
62362;SDS011;48396;48.426;1.500;2023-03-11T08:16:23;6.00;;;2.80;;
62362;SDS011;48396;48.426;1.500;2023-03-11T08:18:50;5.72;;;2.70;;
62362;SDS011;48396;48.426;1.500;2023-03-11T08:21:17;5.85;;;2.97;;
62362;SDS011;48396;48.426;1.500;2023-03-11T08:23:46;6.22;;;3.08;;
62362;SDS011;48396;48.426;1.500;2023-03-11T08:26:14;5.63;;;2.70;;
62362;SDS011;48396;48.426;1.500;2023-03-11T08:28:41;7.97;;;2.35;;
62362;SDS011;48396;48.426;1.500;2023-03-11T08:31:12;3.42;;;2.42;;
62362;SDS011;48396;48.426;1.500;2023-03-11T08:33:38;3.85;;;2.42;;
62362;SDS011;48396;48.426;1.500;2023-03-11T08:36:05;6.07;;;2.75;;
62362;SDS011;48396;48.426;1.500;2023-03-11T08:38:31;4.45;;;2.70;;
62362;SDS011;48396;48.426;1.500;2023-03-11T08:40:56;6.03;;;2.88;;
62362;SDS011;48396;48.426;1.500;2023-03-11T08:43:23;4.72;;;2.60;;
62362;SDS011;48396;48.426;1.500;2023-03-11T08:45:49;4.10;;;2.70;;
62362;SDS011;48396;48.426;1.500;2023-03-11T08:48:15;7.20;;;2.92;;
62362;SDS011;48396;48.426;1.500;2023-03-11T08:50:43;5.47;;;2.97;;
62362;SDS011;48396;48.426;1.500;2023-03-11T08:53:09;7.30;;;2.80;;
62362;SDS011;48396;48.426;1.500;2023-03-11T08:55:35;3.70;;;2.53;;
62362;SDS011;48396;48.426;1.500;2023-03-11T08:58:01;6.90;;;2.85;;
62362;SDS011;48396;48.426;1.500;2023-03-11T09:00:26;6.72;;;2.97;;
62362;SDS011;48396;48.426;1.500;2023-03-11T09:02:52;4.93;;;2.63;;
62362;SDS011;48396;48.426;1.500;2023-03-11T09:05:18;4.28;;;2.40;;
62362;SDS011;48396;48.426;1.500;2023-03-11T09:07:45;3.95;;;2.80;;
62362;SDS011;48396;48.426;1.500;2023-03-11T09:10:14;7.40;;;2.70;;
62362;SDS011;48396;48.426;1.500;2023-03-11T09:12:40;3.30;;;2.50;;
62362;SDS011;48396;48.426;1.500;2023-03-11T09:15:07;3.42;;;2.28;;
62362;SDS011;48396;48.426;1.500;2023-03-11T09:17:33;8.48;;;3.05;;
62362;SDS011;48396;48.426;1.500;2023-03-11T09:19:59;6.10;;;2.88;;
62362;SDS011;48396;48.426;1.500;2023-03-11T09:22:26;4.40;;;2.58;;
62362;SDS011;48396;48.426;1.500;2023-03-11T09:24:52;5.63;;;2.60;;
62362;SDS011;48396;48.426;1.500;2023-03-11T09:27:18;5.75;;;2.72;;
62362;SDS011;48396;48.426;1.500;2023-03-11T09:29:43;6.20;;;3.35;;
62362;SDS011;48396;48.426;1.500;2023-03-11T09:32:11;5.32;;;2.90;;
62362;SDS011;48396;48.426;1.500;2023-03-11T09:34:38;4.80;;;2.83;;
62362;SDS011;48396;48.426;1.500;2023-03-11T09:37:03;7.22;;;2.85;;
62362;SDS011;48396;48.426;1.500;2023-03-11T09:39:29;7.97;;;3.13;;
62362;SDS011;48396;48.426;1.500;2023-03-11T09:41:58;6.47;;;3.08;;
62362;SDS011;48396;48.426;1.500;2023-03-11T09:50:07;5.78;;;3.10;;
62362;SDS011;48396;48.426;1.500;2023-03-11T09:58:58;6.80;;;3.17;;
62362;SDS011;48396;48.426;1.500;2023-03-11T10:01:00;5.85;;;3.00;;
62362;SDS011;48396;48.426;1.500;2023-03-11T10:03:34;5.78;;;3.50;;
62362;SDS011;48396;48.426;1.500;2023-03-11T10:06:46;6.47;;;3.58;;
62362;SDS011;48396;48.426;1.500;2023-03-11T10:08:50;6.13;;;3.15;;
62362;SDS011;48396;48.426;1.500;2023-03-11T10:14:26;7.70;;;3.45;;
62362;SDS011;48396;48.426;1.500;2023-03-11T10:28:11;5.70;;;3.17;;
62362;SDS011;48396;48.426;1.500;2023-03-11T10:30:40;4.75;;;3.25;;
62362;SDS011;48396;48.426;1.500;2023-03-11T10:35:53;5.13;;;3.10;;
62362;SDS011;48396;48.426;1.500;2023-03-11T10:38:30;10.73;;;3.53;;
62362;SDS011;48396;48.426;1.500;2023-03-11T10:41:02;5.32;;;2.90;;
62362;SDS011;48396;48.426;1.500;2023-03-11T10:43:37;6.20;;;3.20;;
62362;SDS011;48396;48.426;1.500;2023-03-11T10:46:19;6.60;;;3.33;;
62362;SDS011;48396;48.426;1.500;2023-03-11T10:48:49;4.65;;;3.15;;
62362;SDS011;48396;48.426;1.500;2023-03-11T10:51:16;5.38;;;3.22;;
62362;SDS011;48396;48.426;1.500;2023-03-11T10:53:53;6.80;;;3.55;;
62362;SDS011;48396;48.426;1.500;2023-03-11T10:56:38;5.97;;;3.30;;
62362;SDS011;48396;48.426;1.500;2023-03-11T10:59:25;6.20;;;3.30;;
62362;SDS011;48396;48.426;1.500;2023-03-11T11:01:58;7.05;;;3.40;;
62362;SDS011;48396;48.426;1.500;2023-03-11T11:04:44;4.97;;;3.30;;
62362;SDS011;48396;48.426;1.500;2023-03-11T11:07:30;7.22;;;3.38;;
62362;SDS011;48396;48.426;1.500;2023-03-11T11:10:11;6.63;;;3.17;;
62362;SDS011;48396;48.426;1.500;2023-03-11T11:13:23;3.95;;;2.92;;
62362;SDS011;48396;48.426;1.500;2023-03-11T11:15:42;5.80;;;3.00;;
62362;SDS011;48396;48.426;1.500;2023-03-11T11:18:22;3.72;;;2.88;;
62362;SDS011;48396;48.426;1.500;2023-03-11T11:23:24;5.10;;;3.22;;
62362;SDS011;48396;48.426;1.500;2023-03-11T11:25:58;5.00;;;2.65;;
62362;SDS011;48396;48.426;1.500;2023-03-11T11:28:26;4.72;;;2.80;;
62362;SDS011;48396;48.426;1.500;2023-03-11T11:33:26;4.38;;;2.90;;
62362;SDS011;48396;48.426;1.500;2023-03-11T11:36:01;5.90;;;3.20;;
62362;SDS011;48396;48.426;1.500;2023-03-11T11:38:29;4.82;;;3.15;;
62362;SDS011;48396;48.426;1.500;2023-03-11T11:40:57;6.72;;;3.38;;
62362;SDS011;48396;48.426;1.500;2023-03-11T11:46:12;5.38;;;3.25;;
62362;SDS011;48396;48.426;1.500;2023-03-11T11:48:46;7.93;;;3.80;;
62362;SDS011;48396;48.426;1.500;2023-03-11T11:51:22;6.20;;;3.50;;
62362;SDS011;48396;48.426;1.500;2023-03-11T11:56:54;3.92;;;2.78;;
62362;SDS011;48396;48.426;1.500;2023-03-11T11:59:21;6.15;;;3.53;;
62362;SDS011;48396;48.426;1.500;2023-03-11T12:01:49;9.88;;;4.47;;
62362;SDS011;48396;48.426;1.500;2023-03-11T12:10:09;7.47;;;4.07;;
62362;SDS011;48396;48.426;1.500;2023-03-11T12:13:11;8.27;;;4.25;;
62362;SDS011;48396;48.426;1.500;2023-03-11T12:18:28;13.38;;;5.28;;
62362;SDS011;48396;48.426;1.500;2023-03-11T12:21:24;13.07;;;5.07;;
62362;SDS011;48396;48.426;1.500;2023-03-11T12:26:48;18.40;;;8.00;;
62362;SDS011;48396;48.426;1.500;2023-03-11T12:31:49;16.95;;;6.85;;
62362;SDS011;48396;48.426;1.500;2023-03-11T12:34:15;13.32;;;6.32;;
62362;SDS011;48396;48.426;1.500;2023-03-11T12:36:45;13.88;;;6.43;;
62362;SDS011;48396;48.426;1.500;2023-03-11T12:39:23;16.88;;;7.05;;
62362;SDS011;48396;48.426;1.500;2023-03-11T12:44:38;17.50;;;7.90;;
62362;SDS011;48396;48.426;1.500;2023-03-11T12:49:35;13.32;;;6.53;;
62362;SDS011;48396;48.426;1.500;2023-03-11T12:54:47;15.98;;;7.50;;
62362;SDS011;48396;48.426;1.500;2023-03-11T13:03:31;13.90;;;5.90;;
62362;SDS011;48396;48.426;1.500;2023-03-11T13:08:56;7.68;;;3.80;;
62362;SDS011;48396;48.426;1.500;2023-03-11T13:16:39;5.90;;;3.63;;
62362;SDS011;48396;48.426;1.500;2023-03-11T13:21:57;7.18;;;3.42;;
62362;SDS011;48396;48.426;1.500;2023-03-11T13:41:01;6.38;;;3.38;;
62362;SDS011;48396;48.426;1.500;2023-03-11T13:43:28;6.60;;;3.20;;
62362;SDS011;48396;48.426;1.500;2023-03-11T13:46:02;9.45;;;3.60;;
62362;SDS011;48396;48.426;1.500;2023-03-11T13:48:38;8.35;;;3.75;;
62362;SDS011;48396;48.426;1.500;2023-03-11T13:53:44;6.90;;;3.75;;
62362;SDS011;48396;48.426;1.500;2023-03-11T13:56:23;7.60;;;3.55;;
62362;SDS011;48396;48.426;1.500;2023-03-11T13:58:51;9.05;;;3.63;;
62362;SDS011;48396;48.426;1.500;2023-03-11T14:01:17;7.68;;;3.60;;
62362;SDS011;48396;48.426;1.500;2023-03-11T14:03:43;5.82;;;3.38;;
62362;SDS011;48396;48.426;1.500;2023-03-11T14:06:14;6.80;;;3.40;;
62362;SDS011;48396;48.426;1.500;2023-03-11T14:08:42;7.15;;;3.90;;
62362;SDS011;48396;48.426;1.500;2023-03-11T14:11:18;4.45;;;3.10;;
62362;SDS011;48396;48.426;1.500;2023-03-11T14:13:45;6.03;;;3.50;;
62362;SDS011;48396;48.426;1.500;2023-03-11T14:16:21;6.05;;;3.58;;
62362;SDS011;48396;48.426;1.500;2023-03-11T14:19:02;5.53;;;3.50;;
62362;SDS011;48396;48.426;1.500;2023-03-11T14:21:29;5.22;;;3.30;;
62362;SDS011;48396;48.426;1.500;2023-03-11T14:23:56;6.72;;;3.15;;
62362;SDS011;48396;48.426;1.500;2023-03-11T14:28:53;6.57;;;3.08;;
62362;SDS011;48396;48.426;1.500;2023-03-11T14:31:36;5.47;;;3.50;;
62362;SDS011;48396;48.426;1.500;2023-03-11T14:34:10;7.10;;;3.70;;
62362;SDS011;48396;48.426;1.500;2023-03-11T14:39:25;5.10;;;3.13;;
62362;SDS011;48396;48.426;1.500;2023-03-11T14:42:01;5.78;;;3.20;;
62362;SDS011;48396;48.426;1.500;2023-03-11T14:47:16;7.45;;;3.75;;
62362;SDS011;48396;48.426;1.500;2023-03-11T14:49:51;4.07;;;2.90;;
62362;SDS011;48396;48.426;1.500;2023-03-11T14:52:24;5.88;;;3.10;;
62362;SDS011;48396;48.426;1.500;2023-03-11T14:55:07;5.18;;;2.88;;
62362;SDS011;48396;48.426;1.500;2023-03-11T15:00:33;7.13;;;3.40;;
62362;SDS011;48396;48.426;1.500;2023-03-11T15:06:44;6.32;;;3.38;;
62362;SDS011;48396;48.426;1.500;2023-03-11T15:08:45;7.47;;;3.50;;
62362;SDS011;48396;48.426;1.500;2023-03-11T15:11:22;5.18;;;3.35;;
62362;SDS011;48396;48.426;1.500;2023-03-11T15:13:50;8.27;;;3.85;;
62362;SDS011;48396;48.426;1.500;2023-03-11T15:16:20;6.35;;;3.50;;
62362;SDS011;48396;48.426;1.500;2023-03-11T15:18:50;7.30;;;3.80;;
62362;SDS011;48396;48.426;1.500;2023-03-11T15:21:18;5.13;;;3.50;;
62362;SDS011;48396;48.426;1.500;2023-03-11T15:23:48;7.82;;;3.90;;
62362;SDS011;48396;48.426;1.500;2023-03-11T15:26:19;6.47;;;3.40;;
62362;SDS011;48396;48.426;1.500;2023-03-11T15:28:57;7.07;;;3.70;;
62362;SDS011;48396;48.426;1.500;2023-03-11T15:31:27;8.57;;;3.92;;
62362;SDS011;48396;48.426;1.500;2023-03-11T15:34:06;7.78;;;3.53;;
62362;SDS011;48396;48.426;1.500;2023-03-11T15:39:21;7.05;;;3.88;;
62362;SDS011;48396;48.426;1.500;2023-03-11T15:47:45;11.45;;;4.00;;
62362;SDS011;48396;48.426;1.500;2023-03-11T15:50:13;9.15;;;4.20;;
62362;SDS011;48396;48.426;1.500;2023-03-11T15:52:47;10.15;;;4.22;;
62362;SDS011;48396;48.426;1.500;2023-03-11T15:55:13;10.27;;;4.28;;
62362;SDS011;48396;48.426;1.500;2023-03-11T15:57:38;11.07;;;4.38;;
62362;SDS011;48396;48.426;1.500;2023-03-11T16:00:06;9.45;;;4.30;;
62362;SDS011;48396;48.426;1.500;2023-03-11T16:02:40;8.52;;;4.10;;
62362;SDS011;48396;48.426;1.500;2023-03-11T16:05:13;6.38;;;3.90;;
62362;SDS011;48396;48.426;1.500;2023-03-11T16:07:41;6.38;;;4.28;;
62362;SDS011;48396;48.426;1.500;2023-03-11T16:10:08;6.88;;;4.07;;
62362;SDS011;48396;48.426;1.500;2023-03-11T16:12:35;7.90;;;4.07;;
62362;SDS011;48396;48.426;1.500;2023-03-11T16:15:01;7.78;;;4.20;;
62362;SDS011;48396;48.426;1.500;2023-03-11T16:17:28;9.65;;;5.03;;
62362;SDS011;48396;48.426;1.500;2023-03-11T16:19:53;11.02;;;5.25;;
62362;SDS011;48396;48.426;1.500;2023-03-11T16:22:32;10.00;;;5.10;;
62362;SDS011;48396;48.426;1.500;2023-03-11T16:25:00;10.23;;;4.85;;
62362;SDS011;48396;48.426;1.500;2023-03-11T16:27:27;11.05;;;5.40;;
62362;SDS011;48396;48.426;1.500;2023-03-11T16:29:53;9.50;;;4.78;;
62362;SDS011;48396;48.426;1.500;2023-03-11T16:32:19;8.23;;;4.10;;
62362;SDS011;48396;48.426;1.500;2023-03-11T16:34:45;8.93;;;4.68;;
62362;SDS011;48396;48.426;1.500;2023-03-11T16:37:14;9.52;;;4.57;;
62362;SDS011;48396;48.426;1.500;2023-03-11T16:39:44;9.35;;;4.70;;
62362;SDS011;48396;48.426;1.500;2023-03-11T16:42:11;7.88;;;4.50;;
62362;SDS011;48396;48.426;1.500;2023-03-11T16:44:37;9.00;;;5.05;;
62362;SDS011;48396;48.426;1.500;2023-03-11T16:47:03;9.13;;;4.95;;
62362;SDS011;48396;48.426;1.500;2023-03-11T16:49:28;9.32;;;4.60;;
62362;SDS011;48396;48.426;1.500;2023-03-11T16:51:55;7.50;;;3.60;;
62362;SDS011;48396;48.426;1.500;2023-03-11T16:54:20;8.57;;;4.65;;
62362;SDS011;48396;48.426;1.500;2023-03-11T16:56:46;10.52;;;5.38;;
62362;SDS011;48396;48.426;1.500;2023-03-11T16:59:12;8.68;;;5.10;;